Create Custom Reports and Graphics: Custom Report

Latest Observations

MWA Stations

15 Minute Data | America/Los_Angeles
as of 5/7/26 4:15 PM PDT
Station Date Time Temp (°F) RH (%) Dew Pt (°F) Wind Dir (°) Wind Spd (mph) Wind Gust (mph) Solar Rad (W/m2) Pressure (mb) Daily Min Temp (°F) Daily Max Temp (°F) Daily Max Wind (mph) Daily Rain (In) Yest MinT (°F) Yest MaxT (°F) Yest MaxGst (mph) Yest Precip (In) MinBV Day (V)
MWA Office 5/7/26 1615 89.9   8.1 11   7 29.4   5.3 WSW | 251 6.6   3.2 12.5   3.7 660   0 1,007.1   3.6 47.1   5.6 91.1   8.7 15.3   3.9 0.00 41.6 82.4 19.3 0.00 12.4   0.0
MWA OPS 5/7/26 1615 86.2   5.5 21   2 42.1   6.6 SSW | 199 10.3   6.9 17.3   4.6 671   0 1,007.4   2.4 50.4   8.5 89.5   8.5 21.3   3.3 0.00 41.9 81.3 18.0 0.00 12.8   0.1
LV-PS 5/7/26 1615 88.6   9.4 14   8 33.2   3.4 WNW | 282 9.4   5.2 16.9   7.0 684   0 1,006.5   3.5 53.2   7.0 89.6   9.2 21.7   3.3 0.00 46.2 80.9 18.4 0.00 12.8   0.0
JV-PS 5/7/26 1615 88.6   9.5 14   6 32.9   1.8 WNW | 283 6.8   0.6 14.5   3.1 664   4 1,006.4   3.8 51.8   3.3 90.0   9.7 22.1   1.3 0.00 48.5 80.3 23.4 0.02 12.9   0.0
BDVWA 5/7/26 1615 85.4   9.1 16   7 33.9   2.1 NNE | 16 5.4   0.1 16.0   2.0 689   1 1,006.2   3.7 62.7   15.5 86.3   9.3 18.2   5.9 0.00 47.2 77.0 24.1 0.03 12.9   0.1
Newberry Springs 5/7/26 1615 94.0   10.0 13   8 36.4   3.5 W | 275 6.5   1.2 17.8   5.1 695   6 1,006.6   4.0 62.1   9.5 95.3   10.4 17.8   7.7 0.00 52.5 85.4 25.4 0.00 12.9   0.0
Pinon Hills 5/7/26 1615 79.5   8.7 15   12 27.4   7.7 WNW | 293 6.7   1.8 16.0   2.4 695   6 1,007.1   3.5 57.6   19.5 81.0   9.4 16.9   0.2 0.00 38.1 72.3 19.3 0.00 12.9   0.1
Helendale 5/7/26 1615 91.4   8.5 13   8 34.4   5.2 W | 270 7.5   0.8 14.0   0.9 653   10 1,006.5   3.2 49.2   4.4 93.3   9.4 17.8   4.4 0.00 44.9 84.3 22.1 0.00 12.7   0.0
Lenwood 5/7/26 1615 93.2   10.4 11   9 30.5   7.4 NW | 322 7.4   3.4 14.7   4.4 707   12 1,006.3   3.5 48.4   5.9 93.2   8.8 15.1   1.3 0.00 42.5 85.5 14.0 0.00 12.8   0.0
Oak Hills 5/7/26 1615 77.6   3.8 38   14 50.1   14.8 SSW | 208 7.3   2.1 13.8   0.2 666   4 1,008.5   1.9 51.6   12.2 81.9   8.0 16.2   2.0 0.00 39.3 74.8 18.2 0.00 12.9   0.0
Pipes Wash Canyon 5/7/26 1615 80.4   8.5 15   7 28.6   2.4 N | 358 6.0   1.1 13.2   0.7 664   12 1,006.1   3.7 56.0   11.7 82.9   9.8 31.1   11.8 0.00 44.3 73.1 19.3 0.00 12.9   0.0
Max     94.0 38 50.1 - 10.3 17.8 707 1,008.5 62.7 95.3 31.1 0.00 52.5 85.5 25.4 0.03 12.9
Avg     86.8 17 34.4 - 7.3 15.1 677 1,006.8 - - - - - - - - -
Min     77.6 11 27.4 - 5.4 12.5 653 1,006.1 47.1 81.0 15.1 0.00 38.1 72.3 14.0 0.00 12.4

Latest Observations

Map

15 Minute Data

Rainfall & ETo

MWA Stations

15 Minute Data | America/Los_Angeles
as of 5/7/26 4:15 PM PDT
Station Date Time Latest Rain (In) Daily Rain (In) Yest Precip (In) Month Precip (In) Season Precip (In) Daily ETo (in) Yest ETo (In) 7 Day ETo (in)
MWA Office 5/7/26 1615 0.00 0.00 0.00 0.00 4.30 0.197 0.21 1.54
MWA OPS 5/7/26 1615 0.00 0.00 0.00 0.00 9.32 0.206 0.22 1.55
LV-PS 5/7/26 1615 0.00 0.00 0.00 0.00 3.63 0.217 0.24 1.77
JV-PS 5/7/26 1615 0.00 0.00 0.02 0.02 6.39 0.221 0.24 1.80
BDVWA 5/7/26 1615 0.00 0.00 0.03 0.03 6.39 0.237 0.24 1.72
Newberry Springs 5/7/26 1615 0.00 0.00 0.00 0.00 2.70 0.253 0.26 1.95
Pinon Hills 5/7/26 1615 0.00 0.00 0.00 0.00 15.51 0.216 0.22 1.48
Helendale 5/7/26 1615 0.00 0.00 0.00 0.00 5.55 0.212 0.24 1.73
Lenwood 5/7/26 1615 0.00 0.00 0.00 0.00 4.24 0.211 0.24 1.81
Oak Hills 5/7/26 1615 0.00 0.00 0.00 0.00 14.72 0.207 0.22 1.33
Pipes Wash Canyon 5/7/26 1615 0.00 0.00 0.00 0.00 13.92 0.221 0.23 1.47
Max     0.00 0.00 0.03 0.03 15.51 0.253 0.26 1.95
Avg     0.00 - - - - - - -
Min     0.00 0.00 0.00 0.00 2.70 0.197 0.21 1.33